Používaním stránok prevádzkovaných PROFIPILOT, s.r.o. súhlasíte s používaním cookies, ktoré nám pomáhajú zabezpečiť lepšie služby.OK

Briefing

MAPA | METAR | TAF | METEO SITUÁCIA
MAPA | METAR | TAF | METEO SITUÁCIA

Predpoveď na dnes

Slnečno a teplo. Najvyššia denná teplota 26 až 31 st. Teplota na horách vo výške 1500 m okolo 19 st. Bezvetrie alebo slabý premenlivý, na juhozápadnom Slovensku východný až juhovýchodný vietor 2 až 6 m/s (5 až 20 km/h). Predpokladané množstvo zrážok: bez zrážok

SHMÚ, OMPaV, LU 27.8.2016 10:45 LSEČ

MAPA | METAR | TAF | METEO SITUÁCIA

TAF - Letisková predpoveď

27.08.2016 - 08:00 UTC

TAF LZSL 270800Z 2709/2718 VRB02KT CAVOK
     TEMPO 2709/2716 16006KT=
 TAF LZPP 270800Z 2709/2718 15006KT CAVOK
     TEMPO 2709/2715 16012KT=
 TAF LZZI 270800Z 2709/2718 24005KT CAVOK
     BECMG 2716/2718 VRB02KT=
 

27.08.2016 - 08:00 UTC

TAF LZSL 270800Z 2709/2718 VRB02KT CAVOK
     TEMPO 2709/2716 16006KT=
 TAF LZPP 270800Z 2709/2718 15006KT CAVOK
     TEMPO 2709/2715 16012KT=
 TAF LZZI 270800Z 2709/2718 24005KT CAVOK
     BECMG 2716/2718 VRB02KT=
 

27.08.2016 - 05:00 UTC

TAF LZSL 270500Z 2706/2715 VRB02KT 2000 BCFG FEW004
     TEMPO 2704/2707 0400 FG BKN002
     BECMG 2707/2709 CAVOK=
 TAF LZPP 270500Z 2706/2715 13005KT CAVOK=
 TAF LZZI 270500Z 2706/2715 VRB02KT CAVOK
     BECMG 2707/2709 22004KT=
 

27.08.2016 - 05:00 UTC

TAF LZSL 270500Z 2706/2715 VRB02KT 2000 BCFG FEW004
     TEMPO 2704/2707 0400 FG BKN002
     BECMG 2707/2709 CAVOK=
 TAF LZPP 270500Z 2706/2715 13005KT CAVOK=
 TAF LZZI 270500Z 2706/2715 VRB02KT CAVOK
     BECMG 2707/2709 22004KT=
 

27.08.2016 - 05:00 UTC

TAF LZIB 270500Z 2706/2806 03004KT CAVOK
     BECMG 2707/2709 14008KT
     TEMPO 2710/2716 15015KT=
 TAF LZKZ 270500Z 2706/2806 VRB02KT CAVOK=
 TAF LZTT 270500Z 2706/2806 27004KT CAVOK
     BECMG 2708/2710 13006KT
     BECMG 2717/2719 25004KT=
 

27.08.2016 - 02:00 UTC

TAF AMD LZSL 270410Z 2704/2712 VRB02KT 2000 BCFG FEW004
     TEMPO 2704/2707 0400 FG BKN002
     BECMG 2707/2709 CAVOK=
 

27.08.2016 - 02:00 UTC

TAF LZSL 270200Z 2703/2712 VRB02KT CAVOK=
 TAF LZZI 270200Z 2703/2712 VRB02KT CAVOK
     PROB30 TEMPO 2703/2706 5000 BR FEW001=
 

27.08.2016 - 02:00 UTC

TAF LZSL 270200Z 2703/2712 VRB02KT CAVOK=
 TAF LZZI 270200Z 2703/2712 VRB02KT CAVOK
     PROB30 TEMPO 2703/2706 5000 BR FEW001=
 
MAPA | METAR | TAF | METEO SITUÁCIA

METAR - Letisková meteo správa

Letisková meteorologická správa METAR

Meteorologické informácie z ďalších profesionálnych meteorologických staníc SHMÚ zobrazené v tvare zodpovedajúcom pravidlám kódovania správ METAR sú uvedené v položke „METSYN Informácie o správe METAR

27.08.2016 - 09:30 UTC

METAR LZIB 270930Z 14008KT 120V180 9999 FEW040 26/15 Q1022 NOSIG=
 METAR LZKZ 270930Z 06003KT 020V110 CAVOK 25/14 Q1024 NOSIG=
 METAR LZPP 270930Z 14010KT CAVOK 26/13 Q1023=
 METAR LZSL 270930Z VRB01KT 9999 FEW040 25/15 Q1025=
 METAR LZTT 270930Z VRB03KT CAVOK 22/13 Q1026 NOSIG=
 METAR LZZI 270930Z VRB03KT CAVOK 25/15 Q1024=
 

27.08.2016 - 09:00 UTC

METAR LZIB 270900Z 10006KT 060V130 CAVOK 25/15 Q1022 NOSIG=
 METAR LZKZ 270900Z 02003KT 300V070 CAVOK 24/14 Q1025 NOSIG=
 METAR LZPP 270900Z 14011KT CAVOK 26/13 Q1023=
 METAR LZSL 270900Z VRB02G12KT CAVOK 23/15 Q1025=
 METAR LZTT 270900Z 09003KT 060V120 CAVOK 21/12 Q1026 NOSIG=
 METAR LZZI 270900Z VRB01KT CAVOK 24/15 Q1024=
 

27.08.2016 - 09:00 UTC

METAR LZMC 270900Z 14010KT CAVOK 26/13 Q1023=
 METAR LZPW 270900Z 09004KT CAVOK 22/14 Q1025=
 
načítavam...